createdAt,value
2023-03-20T00:02:03.310Z,14.67
2023-03-20T00:04:30.448Z,14.54
2023-03-20T00:06:57.010Z,14.61
2023-03-20T00:09:25.556Z,14.59
2023-03-20T00:11:54.103Z,14.87
2023-03-20T00:14:22.587Z,11.93
2023-03-20T00:16:50.742Z,12.12
2023-03-20T00:19:29.487Z,11.78
2023-03-20T00:21:57.098Z,12.20
2023-03-20T00:24:24.802Z,11.59
2023-03-20T00:26:53.078Z,11.55
2023-03-20T00:29:23.848Z,11.69
2023-03-20T00:31:51.372Z,11.52
2023-03-20T00:34:20.388Z,11.34
2023-03-20T00:36:47.600Z,11.63
2023-03-20T00:39:14.035Z,11.83
2023-03-20T00:41:43.539Z,14.40
2023-03-20T00:44:26.668Z,14.69
2023-03-20T00:47:04.920Z,14.62
2023-03-20T00:49:34.157Z,14.34
2023-03-20T00:52:02.100Z,14.57
2023-03-20T00:54:38.517Z,14.13
2023-03-20T00:57:30.819Z,14.11
2023-03-20T01:00:05.265Z,14.21
2023-03-20T01:02:32.791Z,14.15
2023-03-20T01:04:59.685Z,14.46
2023-03-20T01:07:26.647Z,14.36
2023-03-20T01:09:53.082Z,14.14
2023-03-20T01:12:19.578Z,14.04
2023-03-20T01:14:53.638Z,14.20
2023-03-20T01:17:23.095Z,14.27
2023-03-20T01:19:49.839Z,13.61
2023-03-20T01:22:18.055Z,13.39
2023-03-20T01:24:44.837Z,14.06
2023-03-20T01:27:17.123Z,13.83
2023-03-20T01:29:44.200Z,13.22
2023-03-20T01:32:16.828Z,13.77
2023-03-20T01:34:43.450Z,13.83
2023-03-20T01:37:18.650Z,14.30
2023-03-20T01:39:45.248Z,12.83
2023-03-20T01:42:16.017Z,13.37
2023-03-20T01:44:42.909Z,13.04
2023-03-20T01:47:19.257Z,13.83
2023-03-20T01:50:19.741Z,14.12
2023-03-20T01:52:48.941Z,13.96
2023-03-20T01:55:15.909Z,13.85
2023-03-20T01:57:42.485Z,14.45
2023-03-20T02:00:16.629Z,14.28
2023-03-20T02:02:47.110Z,13.98
2023-03-20T02:05:17.482Z,14.16
2023-03-20T02:07:47.629Z,13.93
2023-03-20T02:10:16.384Z,12.76
2023-03-20T02:12:44.212Z,14.16
2023-03-20T02:15:14.242Z,13.23
2023-03-20T02:17:42.585Z,14.25
2023-03-20T02:20:33.857Z,14.38
2023-03-20T02:23:15.595Z,14.50
2023-03-20T02:26:01.152Z,14.63
2023-03-20T02:28:53.739Z,14.80
2023-03-20T02:31:48.125Z,14.66
2023-03-20T02:34:29.800Z,14.63
2023-03-20T02:37:17.632Z,14.95
2023-03-20T02:40:02.920Z,15.00
2023-03-20T02:42:58.836Z,15.17
2023-03-20T02:45:27.799Z,14.52
2023-03-20T02:47:57.435Z,14.02
2023-03-20T02:50:33.578Z,14.86
2023-03-20T02:53:24.746Z,14.76
2023-03-20T02:56:10.626Z,14.61
2023-03-20T02:58:45.447Z,14.54
2023-03-20T03:01:18.037Z,14.16
2023-03-20T03:03:51.311Z,14.28
2023-03-20T03:06:39.376Z,14.18
2023-03-20T03:09:12.065Z,14.57
2023-03-20T03:11:43.939Z,14.25
2023-03-20T03:14:24.200Z,14.37
2023-03-20T03:16:52.533Z,13.79
2023-03-20T03:19:23.968Z,13.81
2023-03-20T03:21:50.708Z,13.77
2023-03-20T03:24:43.243Z,13.71
2023-03-20T03:27:34.368Z,13.78
2023-03-20T03:30:06.900Z,14.21
2023-03-20T03:32:55.725Z,13.51
2023-03-20T03:35:23.498Z,13.20
2023-03-20T03:38:01.797Z,13.33
2023-03-20T03:40:46.617Z,13.44
2023-03-20T03:43:28.503Z,13.54
2023-03-20T03:46:03.783Z,13.64
2023-03-20T03:48:36.680Z,13.76
2023-03-20T03:51:12.960Z,13.78
2023-03-20T03:53:48.355Z,13.74
2023-03-20T03:56:19.526Z,13.66
2023-03-20T03:58:51.471Z,13.78
2023-03-20T04:01:19.580Z,13.63
2023-03-20T04:03:52.388Z,13.78
2023-03-20T04:06:20.389Z,13.64
2023-03-20T04:08:46.949Z,13.89
2023-03-20T04:11:19.114Z,13.41
2023-03-20T04:13:51.347Z,14.06
2023-03-20T04:16:19.066Z,13.65
2023-03-20T04:18:46.328Z,13.57
2023-03-20T04:21:13.456Z,13.63
2023-03-20T04:23:39.910Z,13.85
2023-03-20T04:26:06.864Z,13.67
2023-03-20T04:28:33.668Z,13.80
2023-03-20T04:31:02.296Z,13.36
2023-03-20T04:33:29.513Z,13.40
2023-03-20T04:35:56.678Z,13.13
2023-03-20T04:38:24.071Z,13.42
2023-03-20T04:40:51.100Z,13.28
2023-03-20T04:43:17.936Z,13.16
2023-03-20T04:45:44.670Z,12.95
2023-03-20T04:48:11.215Z,12.76
2023-03-20T04:50:37.789Z,13.30
2023-03-20T04:53:04.422Z,13.31
2023-03-20T04:55:30.995Z,13.29
2023-03-20T04:57:57.502Z,12.62
2023-03-20T05:00:24.162Z,13.35
2023-03-20T05:02:50.804Z,13.34
2023-03-20T05:05:17.389Z,13.39
2023-03-20T05:07:43.935Z,13.40
2023-03-20T05:10:11.354Z,13.21
2023-03-20T05:12:37.841Z,13.19
2023-03-20T05:15:04.548Z,13.27
2023-03-20T05:17:31.114Z,13.13
2023-03-20T05:19:57.995Z,13.22
2023-03-20T05:22:24.611Z,13.22
2023-03-20T05:24:51.511Z,13.24
2023-03-20T05:27:18.428Z,13.04
2023-03-20T05:29:45.302Z,12.97
2023-03-20T05:32:12.777Z,13.32
2023-03-20T05:34:39.665Z,13.24
2023-03-20T05:37:06.115Z,13.31
2023-03-20T05:39:32.573Z,13.24
2023-03-20T05:41:59.065Z,13.12
2023-03-20T05:44:25.522Z,13.06
2023-03-20T05:46:51.972Z,12.96
2023-03-20T05:49:18.404Z,13.13
2023-03-20T05:51:44.855Z,12.75
2023-03-20T05:54:11.685Z,13.02
2023-03-20T05:56:38.159Z,13.28
2023-03-20T05:59:04.628Z,12.99
2023-03-20T06:01:31.200Z,13.06
2023-03-20T06:03:57.733Z,13.02
2023-03-20T06:06:24.274Z,13.00
2023-03-20T06:08:51.108Z,12.67
2023-03-20T06:11:17.867Z,13.00
2023-03-20T06:13:44.384Z,12.61
2023-03-20T06:16:11.028Z,12.92
2023-03-20T06:18:39.150Z,13.00
2023-03-20T06:21:06.064Z,12.89
2023-03-20T06:23:32.639Z,12.78
2023-03-20T06:25:59.101Z,12.87
2023-03-20T06:28:25.608Z,12.84
2023-03-20T06:30:53.403Z,13.04
2023-03-20T06:33:20.172Z,12.72
2023-03-20T06:35:47.417Z,12.81
2023-03-20T06:38:14.673Z,12.90
2023-03-20T06:40:41.753Z,12.58
2023-03-20T06:43:08.261Z,12.78
2023-03-20T06:45:35.040Z,12.70
2023-03-20T06:48:01.888Z,12.69
2023-03-20T06:50:28.365Z,12.70
2023-03-20T06:52:54.956Z,12.74
2023-03-20T06:55:21.456Z,13.15
2023-03-20T06:57:47.927Z,13.11
2023-03-20T07:00:15.081Z,13.02
2023-03-20T07:02:41.557Z,12.78
2023-03-20T07:05:08.539Z,12.86
2023-03-20T07:07:35.033Z,13.01
2023-03-20T07:10:01.656Z,12.94
2023-03-20T07:12:29.026Z,12.93
2023-03-20T07:14:56.137Z,12.95
2023-03-20T07:17:23.312Z,12.44
2023-03-20T07:19:50.238Z,13.10
2023-03-20T07:22:26.048Z,12.57
2023-03-20T07:24:52.828Z,12.95
2023-03-20T07:27:19.730Z,13.18
2023-03-20T07:29:46.654Z,12.82
2023-03-20T07:32:13.462Z,13.07
2023-03-20T07:34:40.034Z,13.46
2023-03-20T07:37:07.215Z,13.35
2023-03-20T07:39:33.825Z,13.35
2023-03-20T07:42:00.534Z,13.11
2023-03-20T07:44:27.002Z,13.17
2023-03-20T07:46:53.713Z,13.17
2023-03-20T07:49:20.464Z,13.23
2023-03-20T07:51:48.146Z,13.43
2023-03-20T07:54:15.399Z,13.12
2023-03-20T07:56:42.643Z,13.34
2023-03-20T07:59:09.370Z,13.61
2023-03-20T08:01:35.914Z,13.40
2023-03-20T08:04:02.663Z,13.50
2023-03-20T08:06:29.217Z,13.84
2023-03-20T08:08:55.963Z,13.67
2023-03-20T08:11:22.540Z,13.79
2023-03-20T08:13:49.073Z,13.92
2023-03-20T08:16:15.549Z,13.67
2023-03-20T08:18:42.574Z,13.92
2023-03-20T08:21:09.414Z,13.43
2023-03-20T08:23:35.901Z,13.82
2023-03-20T08:26:02.418Z,13.83
2023-03-20T08:28:46.276Z,13.88
2023-03-20T08:31:14.771Z,14.31
2023-03-20T08:33:41.375Z,13.82
2023-03-20T08:36:08.258Z,14.26
2023-03-20T08:38:35.074Z,14.21
2023-03-20T08:41:01.581Z,14.07
2023-03-20T08:43:28.060Z,14.30
2023-03-20T08:45:55.147Z,14.11
2023-03-20T08:48:21.758Z,14.20
2023-03-20T08:50:48.399Z,14.07
2023-03-20T08:53:14.949Z,13.97
2023-03-20T08:55:41.672Z,13.76
2023-03-20T08:58:08.233Z,14.26
2023-03-20T09:00:34.705Z,14.16
2023-03-20T09:03:01.501Z,13.96
2023-03-20T09:05:28.098Z,14.17
2023-03-20T09:07:54.594Z,14.20
2023-03-20T09:10:22.070Z,13.96
2023-03-20T09:12:48.660Z,14.26
2023-03-20T09:15:15.226Z,14.27
2023-03-20T09:17:41.702Z,14.37
2023-03-20T09:20:09.066Z,14.36
2023-03-20T09:22:35.578Z,14.70
2023-03-20T09:25:02.092Z,14.69
2023-03-20T09:27:28.665Z,14.42
2023-03-20T09:29:55.181Z,14.64
2023-03-20T09:32:21.708Z,14.42
2023-03-20T09:34:48.234Z,14.15
2023-03-20T09:37:14.762Z,14.29
2023-03-20T09:39:41.676Z,14.08
2023-03-20T09:42:34.185Z,14.20
2023-03-20T09:45:24.781Z,14.58
2023-03-20T09:47:51.200Z,14.19
2023-03-20T09:50:46.363Z,14.09
2023-03-20T09:53:36.090Z,13.93
2023-03-20T09:56:03.384Z,14.17
2023-03-20T09:58:35.776Z,13.76
2023-03-20T10:01:05.685Z,14.53
2023-03-20T10:03:50.851Z,14.53
2023-03-20T10:06:17.967Z,14.77
2023-03-20T10:08:45.970Z,14.34
2023-03-20T10:11:31.457Z,14.54
2023-03-20T10:14:00.886Z,13.98
2023-03-20T10:16:30.620Z,14.76
2023-03-20T10:19:21.273Z,14.27
2023-03-20T10:21:51.193Z,15.03
2023-03-20T10:24:28.762Z,14.02
2023-03-20T10:26:58.305Z,14.55
2023-03-20T10:29:54.405Z,14.00
2023-03-20T10:32:35.008Z,13.97
2023-03-20T10:35:10.320Z,13.83
2023-03-20T10:37:39.799Z,14.38
2023-03-20T10:40:36.089Z,14.51
2023-03-20T10:43:18.315Z,14.96
2023-03-20T10:45:52.249Z,14.45
2023-03-20T10:48:24.938Z,14.54
2023-03-20T10:50:55.582Z,14.40
2023-03-20T10:53:46.622Z,14.66
2023-03-20T10:56:19.730Z,14.88
2023-03-20T10:58:50.462Z,14.48
2023-03-20T11:01:18.345Z,14.52
2023-03-20T11:03:44.943Z,14.38
2023-03-20T11:06:22.759Z,15.01
2023-03-20T11:08:52.207Z,14.40
2023-03-20T11:11:23.719Z,14.44
2023-03-20T11:13:50.744Z,14.32
2023-03-20T11:16:22.424Z,14.57
2023-03-20T11:18:50.697Z,14.50
2023-03-20T11:21:21.464Z,14.29
2023-03-20T11:23:48.621Z,14.31
2023-03-20T11:26:28.001Z,14.16
2023-03-20T11:28:57.803Z,13.86
2023-03-20T11:31:41.340Z,13.83
2023-03-20T11:34:11.217Z,14.01
2023-03-20T11:36:41.010Z,14.22
2023-03-20T11:39:12.958Z,14.42
2023-03-20T11:41:45.542Z,13.82
2023-03-20T11:44:33.618Z,14.01
2023-03-20T11:47:05.813Z,14.22
2023-03-20T11:49:47.735Z,14.22
2023-03-20T11:52:22.900Z,14.16
2023-03-20T11:54:58.166Z,14.17
2023-03-20T11:57:41.119Z,14.63
2023-03-20T12:00:18.255Z,14.38
2023-03-20T12:02:45.045Z,14.28
2023-03-20T12:05:36.619Z,13.94
2023-03-20T12:08:15.553Z,13.69
2023-03-20T12:10:46.054Z,13.79
2023-03-20T12:13:24.619Z,13.80
2023-03-20T12:15:58.237Z,14.14
2023-03-20T12:18:39.758Z,14.10
2023-03-20T12:21:30.128Z,14.39
2023-03-20T12:24:01.781Z,13.65
2023-03-20T12:27:00.813Z,14.08
2023-03-20T12:29:32.523Z,13.66
2023-03-20T12:32:04.090Z,13.77
2023-03-20T12:34:43.068Z,14.11
2023-03-20T12:37:11.877Z,14.27
2023-03-20T12:39:49.191Z,13.83
2023-03-20T12:42:45.981Z,13.85
2023-03-20T12:45:16.008Z,13.48
2023-03-20T12:47:51.978Z,13.27
2023-03-20T12:50:25.095Z,13.20
2023-03-20T12:53:07.130Z,13.17
2023-03-20T12:55:55.649Z,13.23
2023-03-20T12:58:34.117Z,13.59
2023-03-20T13:01:10.586Z,13.95
2023-03-20T13:04:07.978Z,13.43
2023-03-20T13:06:37.382Z,13.74
2023-03-20T13:09:28.380Z,13.85
2023-03-20T13:12:13.785Z,13.89
2023-03-20T13:14:40.308Z,13.57
2023-03-20T13:17:26.350Z,13.76
2023-03-20T13:20:07.430Z,13.46
2023-03-20T13:23:10.950Z,13.80
2023-03-20T13:25:46.860Z,13.60
2023-03-20T13:28:27.131Z,13.70
2023-03-20T13:30:56.213Z,13.78
2023-03-20T13:33:52.176Z,13.75
2023-03-20T13:36:18.594Z,13.81
2023-03-20T13:38:53.714Z,13.58
2023-03-20T13:41:24.303Z,13.56
2023-03-20T13:43:57.241Z,13.84
2023-03-20T13:46:45.894Z,13.69
2023-03-20T13:49:29.160Z,13.66
2023-03-20T13:52:15.294Z,13.72
2023-03-20T13:55:11.470Z,13.94
2023-03-20T13:58:00.005Z,13.94
2023-03-20T14:00:48.645Z,13.53
2023-03-20T14:03:19.150Z,13.42
2023-03-20T14:05:47.473Z,13.73
2023-03-20T14:08:20.236Z,13.57
2023-03-20T14:10:46.880Z,13.56
2023-03-20T14:13:18.400Z,13.79
2023-03-20T14:15:53.900Z,13.64
2023-03-20T14:18:24.014Z,13.47
2023-03-20T14:20:57.103Z,13.67
2023-03-20T14:23:32.998Z,13.34
2023-03-20T14:26:00.314Z,13.29
2023-03-20T14:28:41.374Z,13.40
2023-03-20T14:31:27.760Z,13.28
2023-03-20T14:34:08.765Z,13.75
2023-03-20T14:37:02.013Z,13.70
2023-03-20T14:39:53.419Z,13.68
2023-03-20T14:42:51.189Z,13.68
2023-03-20T14:45:31.060Z,13.24
2023-03-20T14:47:57.454Z,13.82
2023-03-20T14:50:40.861Z,13.51
2023-03-20T14:53:17.911Z,13.81
2023-03-20T14:55:56.391Z,13.30
2023-03-20T14:58:43.931Z,13.38
2023-03-20T15:01:45.634Z,13.68
2023-03-20T15:04:39.418Z,13.56
2023-03-20T15:07:21.372Z,13.85
2023-03-20T15:09:51.089Z,13.81
2023-03-20T15:12:21.272Z,13.93
2023-03-20T15:14:51.491Z,12.63
2023-03-20T15:17:27.876Z,13.87
2023-03-20T15:20:11.207Z,13.55
2023-03-20T15:22:58.191Z,13.42
2023-03-20T15:25:39.886Z,13.35
2023-03-20T15:28:36.688Z,13.49
2023-03-20T15:31:05.911Z,13.30
2023-03-20T15:33:39.354Z,13.25
2023-03-20T15:36:11.345Z,13.17
2023-03-20T15:38:38.772Z,12.87
2023-03-20T15:41:07.341Z,13.09
2023-03-20T15:43:38.199Z,12.91
2023-03-20T15:46:18.036Z,13.17
2023-03-20T15:48:49.790Z,13.47
2023-03-20T15:51:17.705Z,13.60
2023-03-20T15:53:48.038Z,13.53
2023-03-20T15:56:18.954Z,13.39
2023-03-20T15:58:49.503Z,13.54
2023-03-20T16:01:19.722Z,14.00
2023-03-20T16:03:47.554Z,13.92
2023-03-20T16:06:20.043Z,13.80
2023-03-20T16:08:56.636Z,13.26
2023-03-20T16:11:23.407Z,13.25
2023-03-20T16:13:51.756Z,13.83
2023-03-20T16:16:22.124Z,14.06
2023-03-20T16:18:51.016Z,13.89
2023-03-20T16:21:25.243Z,13.65
2023-03-20T16:23:59.861Z,13.54
2023-03-20T16:26:27.581Z,13.48
2023-03-20T16:28:57.618Z,13.29
2023-03-20T16:31:29.089Z,13.37
2023-03-20T16:34:06.927Z,13.30
2023-03-20T16:36:37.063Z,13.42
2023-03-20T16:39:17.727Z,13.26
2023-03-20T16:41:46.110Z,13.11
2023-03-20T16:44:14.516Z,13.31
2023-03-20T16:46:54.074Z,13.07
2023-03-20T16:49:29.763Z,12.79
2023-03-20T16:52:11.656Z,12.73
2023-03-20T16:54:39.246Z,11.57
2023-03-20T16:57:15.041Z,13.38
2023-03-20T16:59:41.888Z,13.64
2023-03-20T17:02:21.837Z,13.42
2023-03-20T17:04:49.030Z,13.50
2023-03-20T17:07:18.462Z,12.68
2023-03-20T17:10:14.137Z,13.76
2023-03-20T17:12:41.930Z,13.91
2023-03-20T17:15:09.823Z,13.13
2023-03-20T17:17:36.295Z,13.39
2023-03-20T17:20:02.788Z,13.63
2023-03-20T17:22:30.697Z,13.56
2023-03-20T17:24:57.434Z,13.56
2023-03-20T17:27:24.011Z,13.46
2023-03-20T17:29:50.558Z,13.52
2023-03-20T17:32:21.170Z,13.54
2023-03-20T17:34:47.833Z,13.32
2023-03-20T17:37:29.977Z,13.45
2023-03-20T17:39:56.887Z,12.96
2023-03-20T17:42:26.867Z,13.38
2023-03-20T17:44:53.455Z,13.32
2023-03-20T17:47:22.943Z,13.20
2023-03-20T17:49:51.907Z,12.99
2023-03-20T17:52:27.570Z,13.17
2023-03-20T17:54:54.734Z,13.26
2023-03-20T17:57:23.787Z,13.05
2023-03-20T17:59:50.577Z,13.32
2023-03-20T18:02:18.400Z,13.99
2023-03-20T18:04:48.128Z,13.43
2023-03-20T18:07:16.245Z,13.29
2023-03-20T18:09:43.687Z,13.35
2023-03-20T18:12:13.688Z,13.32
2023-03-20T18:14:42.018Z,13.16
2023-03-20T18:17:10.668Z,12.49
2023-03-20T18:19:37.142Z,13.37
2023-03-20T18:22:04.197Z,13.57
2023-03-20T18:24:31.037Z,13.42
2023-03-20T18:26:59.007Z,13.35
2023-03-20T18:29:25.795Z,11.94
2023-03-20T18:31:52.796Z,13.42
2023-03-20T18:34:19.286Z,13.27
2023-03-20T18:36:46.006Z,13.39
2023-03-20T18:39:23.972Z,13.50
2023-03-20T18:41:51.369Z,13.43
2023-03-20T18:44:18.066Z,13.62
2023-03-20T18:46:44.736Z,11.42
2023-03-20T18:49:17.023Z,13.18
2023-03-20T18:51:44.683Z,13.38
2023-03-20T18:54:11.476Z,13.49
2023-03-20T18:56:38.175Z,11.42
2023-03-20T18:59:07.907Z,13.57
2023-03-20T19:01:35.707Z,13.72
2023-03-20T19:04:02.785Z,13.71
2023-03-20T19:06:32.582Z,13.79
2023-03-20T19:09:02.702Z,13.73
2023-03-20T19:11:29.171Z,13.91
2023-03-20T19:13:55.946Z,12.81
2023-03-20T19:16:25.382Z,13.64
2023-03-20T19:18:56.711Z,13.78
2023-03-20T19:21:26.172Z,13.75
2023-03-20T19:23:57.821Z,13.90
2023-03-20T19:26:25.981Z,13.82
2023-03-20T19:28:54.117Z,13.58
2023-03-20T19:31:21.243Z,13.51
2023-03-20T19:33:48.570Z,13.48
2023-03-20T19:36:24.275Z,13.28
2023-03-20T19:38:51.552Z,13.62
2023-03-20T19:41:19.974Z,13.49
2023-03-20T19:43:52.858Z,13.43
2023-03-20T19:46:38.019Z,13.42
2023-03-20T19:49:04.926Z,13.85
2023-03-20T19:51:31.662Z,13.41
2023-03-20T19:53:58.150Z,13.56
2023-03-20T19:56:24.687Z,13.65
2023-03-20T19:58:52.209Z,13.61
2023-03-20T20:01:22.371Z,11.85
2023-03-20T20:03:53.709Z,12.86
2023-03-20T20:06:22.552Z,11.97
2023-03-20T20:08:51.123Z,13.62
2023-03-20T20:11:19.156Z,13.84
2023-03-20T20:14:07.170Z,13.91
2023-03-20T20:16:40.892Z,14.15
2023-03-20T20:19:07.750Z,14.18
2023-03-20T20:24:21.747Z,14.37
2023-03-20T20:27:03.095Z,13.31
2023-03-20T20:29:39.527Z,12.52
2023-03-20T20:32:06.327Z,12.65
2023-03-20T20:35:30.712Z,11.52
2023-03-20T20:38:08.985Z,11.98
2023-03-20T20:40:08.204Z,11.92
2023-03-20T20:42:36.979Z,14.09
2023-03-20T20:45:08.065Z,14.28
2023-03-20T20:47:34.811Z,11.68
2023-03-20T20:50:04.032Z,11.78
2023-03-20T20:52:35.844Z,13.30
2023-03-20T20:55:21.205Z,14.17
2023-03-20T20:57:48.380Z,14.22
2023-03-20T21:00:15.628Z,11.90
2023-03-20T21:02:42.769Z,11.95
2023-03-20T21:05:12.970Z,13.88
2023-03-20T21:07:42.732Z,11.66
2023-03-20T21:10:10.035Z,11.78
2023-03-20T21:12:51.945Z,13.80
2023-03-20T21:15:23.442Z,12.51
2023-03-20T21:18:00.068Z,11.75
2023-03-20T21:20:28.147Z,14.08
2023-03-20T21:22:54.593Z,12.31
2023-03-20T21:25:32.560Z,11.65
2023-03-20T21:28:05.517Z,13.54
2023-03-20T21:30:33.517Z,11.87
2023-03-20T21:33:00.616Z,12.93
2023-03-20T21:35:27.517Z,11.66
2023-03-20T21:40:41.906Z,14.09
2023-03-20T21:43:09.618Z,11.91
2023-03-20T21:46:24.992Z,11.61
2023-03-20T21:49:15.589Z,11.55
2023-03-20T21:52:11.271Z,11.65
2023-03-20T21:54:48.455Z,14.71
2023-03-20T21:57:18.092Z,14.69
2023-03-20T22:00:27.735Z,14.75
2023-03-20T22:02:23.512Z,14.41
2023-03-20T22:05:52.969Z,14.59
2023-03-20T22:08:19.571Z,14.46
2023-03-20T22:11:24.953Z,11.84
2023-03-20T22:14:09.054Z,13.35
2023-03-20T22:16:48.271Z,13.54
2023-03-20T22:30:53.369Z,11.80
2023-03-20T22:33:42.338Z,11.83
2023-03-20T22:36:15.716Z,11.75
2023-03-20T22:44:43.825Z,11.73
2023-03-20T22:46:45.721Z,11.72
2023-03-20T22:49:12.640Z,11.71
2023-03-20T22:51:47.843Z,13.34
2023-03-20T22:54:25.617Z,11.80
2023-03-20T22:56:52.177Z,13.11
2023-03-20T22:59:18.647Z,13.25
2023-03-20T23:01:45.141Z,13.44
2023-03-20T23:04:23.573Z,11.62
2023-03-20T23:06:57.037Z,11.38
2023-03-20T23:09:23.646Z,11.54
2023-03-20T23:11:50.114Z,11.52
2023-03-20T23:14:24.972Z,11.59
2023-03-20T23:16:53.049Z,11.76
2023-03-20T23:19:19.524Z,11.64
2023-03-20T23:21:46.413Z,11.52
2023-03-20T23:24:12.968Z,11.64
2023-03-20T23:26:39.494Z,11.59
2023-03-20T23:29:06.414Z,11.73
2023-03-20T23:31:33.087Z,11.76
2023-03-20T23:33:59.580Z,11.70
2023-03-20T23:36:42.069Z,11.73
2023-03-20T23:39:10.968Z,11.78
2023-03-20T23:44:24.394Z,11.76
2023-03-20T23:46:50.914Z,13.51
2023-03-20T23:49:17.411Z,11.86
2023-03-20T23:51:44.096Z,11.77
2023-03-20T23:54:11.423Z,11.74
2023-03-20T23:56:38.167Z,11.82
2023-03-20T23:59:20.698Z,11.78
